NCAR-RAP Real-Time Weather Data

Output produced by METARs form (17 September 2019  16:20 UTC)
found at http://weather.rap.ucar.edu/surface/
 
KGRR 171553Z 10009KT 10SM BKN007 17/14 A3023 RMK AO2 SLP236 T01720144
KGRR 171453Z 09007KT 9SM OVC005 16/14 A3024 RMK AO2 SLP240 T01610139 51005
KGRR 171353Z 06006KT 9SM OVC005 16/14 A3024 RMK AO2 SLP240 T01560139
KGRR 171253Z 09008KT 8SM BKN005 BKN250 15/13 A3024 RMK AO2 SLP239 T01500133
KGRR 171153Z 07005KT 8SM FEW004 FEW100 BKN250 14/13 A3023 RMK AO2 SLP233 T01440133 10172 20144 53016
KGRR 171111Z 06007KT 8SM SCT004 BKN250 15/13 A3021 RMK AO2 T01500133
KGRR 171053Z 07006KT 8SM BKN004 BKN250 15/13 A3020 RMK AO2 SLP225 T01500133
KGRR 171025Z 08005KT 6SM BR OVC004 15/14 A3019 RMK AO2 T01500139
KGRR 170953Z 08005KT 6SM BR SCT004 15/14 A3019 RMK AO2 SLP220 T01500139
KGRR 170939Z AUTO 07005KT 7SM FEW004 16/14 A3019 RMK AO2 T01560139
KGRR 170853Z AUTO 07004KT 10SM CLR 15/14 A3018 RMK AO2 SLP215 T01500139 52004
KGRR 170753Z AUTO 09005KT 10SM CLR 16/14 A3018 RMK AO2 SLP216 T01610144
KGRR 170653Z AUTO 09008KT 10SM CLR 17/15 A3016 RMK AO2 SLP211 T01670150
KGRR 170553Z AUTO 08006KT 10SM CLR 17/16 A3016 RMK AO2 SLP211 T01720156 10233 20167 51008
KGRR 170453Z AUTO 07006KT 10SM CLR 17/16 A3016 RMK AO2 SLP209 T01720156 402670167
KGRR 170353Z 00000KT 10SM FEW250 18/16 A3015 RMK AO2 SLP207 LAST T01780156
KGRR 170253Z 00000KT 10SM FEW250 19/17 A3014 RMK AO2 SLP203 T01890167 51006
KGRR 170053Z 00000KT 10SM FEW250 21/17 A3013 RMK AO2 SLP198 T02060167
KGRR 162353Z 00000KT 10SM FEW040 FEW250 23/16 A3012 RMK AO2 SLP195 T02330156 10267 20233 53004
KGRR 162253Z 05004KT 10SM FEW040 FEW250 24/16 A3011 RMK AO2 SLP192 T02440161
KGRR 162153Z VRB03KT 10SM SCT040 SCT250 26/16 A3011 RMK AO2 SLP191 T02560156
KGRR 162053Z 01005KT 10SM SCT040 SCT250 27/16 A3010 RMK AO2 SLP190 T02670156 56011
KGRR 161953Z VRB04KT 10SM BKN035 BKN250 27/17 A3011 RMK AO2 SLP191 T02670167